createdAt,value
2018-07-11T00:02:24.160Z,101131.00
2018-07-11T00:05:34.913Z,101129.00
2018-07-11T00:08:45.914Z,101115.00
2018-07-11T00:11:56.743Z,101127.00
2018-07-11T00:15:07.553Z,101125.00
2018-07-11T00:18:18.132Z,101126.00
2018-07-11T00:21:28.572Z,101121.00
2018-07-11T00:24:39.304Z,101124.00
2018-07-11T00:27:50.169Z,101122.00
2018-07-11T00:31:01.162Z,101124.00
2018-07-11T00:34:12.034Z,101120.00
2018-07-11T00:37:27.448Z,101121.00
2018-07-11T00:40:38.146Z,101117.00
2018-07-11T00:43:48.638Z,101113.00
2018-07-11T00:47:00.100Z,101111.00
2018-07-11T00:50:11.555Z,101110.00
2018-07-11T00:53:23.555Z,101118.00
2018-07-11T00:56:34.311Z,101115.00
2018-07-11T00:59:45.438Z,101117.00
2018-07-11T01:02:56.417Z,101112.00
2018-07-11T01:06:07.005Z,101112.00
2018-07-11T01:09:17.867Z,101113.00
2018-07-11T01:12:28.473Z,101119.00
2018-07-11T01:15:39.191Z,101120.00
2018-07-11T01:18:57.147Z,101115.00
2018-07-11T01:22:07.695Z,101119.00
2018-07-11T01:25:18.143Z,101124.00
2018-07-11T01:28:28.999Z,101121.00
2018-07-11T01:31:39.867Z,101121.00
2018-07-11T01:34:51.198Z,101126.00
2018-07-11T01:38:01.655Z,101123.00
2018-07-11T01:41:12.558Z,101114.00
2018-07-11T01:44:23.380Z,101123.00
2018-07-11T01:47:33.871Z,101126.00
2018-07-11T01:50:44.327Z,101122.00
2018-07-11T01:53:54.792Z,101122.00
2018-07-11T01:57:05.739Z,101128.00
2018-07-11T02:00:16.216Z,101118.00
2018-07-11T02:03:26.816Z,101124.00
2018-07-11T02:06:37.736Z,101119.00
2018-07-11T02:09:48.552Z,101127.00
2018-07-11T02:13:00.016Z,101122.00
2018-07-11T02:16:10.909Z,101119.00
2018-07-11T02:19:22.622Z,101123.00
2018-07-11T02:22:33.878Z,101118.00
2018-07-11T02:25:44.355Z,101125.00
2018-07-11T02:28:55.693Z,101122.00
2018-07-11T02:32:06.109Z,101135.00
2018-07-11T02:35:16.969Z,101130.00
2018-07-11T02:38:27.761Z,101131.00
2018-07-11T02:41:38.988Z,101122.00
2018-07-11T02:44:50.016Z,101123.00
2018-07-11T02:48:00.942Z,101123.00
2018-07-11T02:51:11.352Z,101121.00
2018-07-11T02:54:21.827Z,101121.00
2018-07-11T02:57:32.700Z,101120.00
2018-07-11T03:00:43.392Z,101119.00
2018-07-11T03:03:54.478Z,101114.00
2018-07-11T03:07:05.441Z,101120.00
2018-07-11T03:10:16.170Z,101125.00
2018-07-11T03:13:27.193Z,101125.00
2018-07-11T03:16:37.496Z,101125.00
2018-07-11T03:19:47.769Z,101118.00
2018-07-11T03:22:58.249Z,101118.00
2018-07-11T03:26:08.992Z,101123.00
2018-07-11T03:29:19.761Z,101120.00
2018-07-11T03:32:30.364Z,101122.00
2018-07-11T03:35:41.160Z,101120.00
2018-07-11T03:38:51.618Z,101119.00
2018-07-11T03:42:02.352Z,101113.00
2018-07-11T03:45:13.108Z,101115.00
2018-07-11T03:48:23.789Z,101115.00
2018-07-11T03:51:34.270Z,101113.00
2018-07-11T03:54:44.767Z,101115.00
2018-07-11T03:57:55.712Z,101117.00
2018-07-11T04:01:06.496Z,101119.00
2018-07-11T04:04:17.337Z,101117.00
2018-07-11T04:07:27.831Z,101118.00
2018-07-11T04:10:40.964Z,101128.00
2018-07-11T04:13:52.749Z,101131.00
2018-07-11T04:17:03.823Z,101132.00
2018-07-11T04:20:14.404Z,101129.00
2018-07-11T04:23:26.650Z,101125.00
2018-07-11T04:26:37.785Z,101127.00
2018-07-11T04:29:48.648Z,101126.00
2018-07-11T04:32:59.353Z,101124.00
2018-07-11T04:36:10.469Z,101135.00
2018-07-11T04:39:21.643Z,101136.00
2018-07-11T04:42:32.384Z,101145.00
2018-07-11T04:45:44.903Z,101141.00
2018-07-11T04:48:55.370Z,101139.00
2018-07-11T04:52:12.527Z,101147.00
2018-07-11T04:55:23.896Z,101147.00
2018-07-11T04:58:34.703Z,101148.00
2018-07-11T05:01:45.346Z,101149.00
2018-07-11T05:04:55.943Z,101145.00
2018-07-11T05:08:06.276Z,101153.00
2018-07-11T05:11:17.244Z,101158.00
2018-07-11T05:14:27.659Z,101157.00
2018-07-11T05:17:38.303Z,101153.00
2018-07-11T05:20:49.205Z,101156.00
2018-07-11T05:23:59.841Z,101147.00
2018-07-11T05:27:10.500Z,101149.00
2018-07-11T05:30:21.175Z,101146.00
2018-07-11T05:33:32.065Z,101148.00
2018-07-11T05:36:43.140Z,101149.00
2018-07-11T05:39:53.972Z,101146.00
2018-07-11T05:43:05.068Z,101152.00
2018-07-11T05:46:16.371Z,101160.00
2018-07-11T05:49:27.028Z,101158.00
2018-07-11T05:52:38.516Z,101165.00
2018-07-11T05:55:49.074Z,101163.00
2018-07-11T05:58:59.503Z,101168.00
2018-07-11T06:02:10.016Z,101159.00
2018-07-11T06:05:21.666Z,101169.00
2018-07-11T06:08:32.321Z,101161.00
2018-07-11T06:11:42.924Z,101160.00
2018-07-11T06:14:53.451Z,101153.00
2018-07-11T06:18:04.284Z,101148.00
2018-07-11T06:21:14.813Z,101153.00
2018-07-11T06:24:25.664Z,101161.00
2018-07-11T06:27:36.956Z,101163.00
2018-07-11T06:30:47.510Z,101166.00
2018-07-11T06:33:59.388Z,101164.00
2018-07-11T06:37:10.356Z,101159.00
2018-07-11T06:40:21.085Z,101169.00
2018-07-11T06:43:31.888Z,101165.00
2018-07-11T06:46:42.367Z,101161.00
2018-07-11T06:49:52.728Z,101162.00
2018-07-11T06:53:03.882Z,101159.00
2018-07-11T06:56:14.328Z,101156.00
2018-07-11T06:59:25.328Z,101148.00
2018-07-11T07:02:37.171Z,101150.00
2018-07-11T07:05:50.240Z,101149.00
2018-07-11T07:09:00.766Z,101141.00
2018-07-11T07:12:12.858Z,101137.00
2018-07-11T07:15:23.492Z,101135.00
2018-07-11T07:18:34.158Z,101126.00
2018-07-11T07:21:44.702Z,101125.00
2018-07-11T07:24:55.596Z,101121.00
2018-07-11T07:28:06.340Z,101113.00
2018-07-11T07:31:17.268Z,101110.00
2018-07-11T07:34:28.127Z,101108.00
2018-07-11T07:37:41.562Z,101107.00
2018-07-11T07:40:52.366Z,101108.00
2018-07-11T07:44:03.207Z,101116.00
2018-07-11T07:47:20.888Z,101116.00
2018-07-11T07:50:31.796Z,101115.00
2018-07-11T07:53:42.442Z,101106.00
2018-07-11T07:56:52.936Z,101102.00
2018-07-11T08:00:03.307Z,101087.00
2018-07-11T08:03:14.140Z,101087.00
2018-07-11T08:06:24.852Z,101090.00
2018-07-11T08:09:35.409Z,101089.00
2018-07-11T08:12:46.209Z,101101.00
2018-07-11T08:15:57.168Z,101095.00
2018-07-11T08:19:07.915Z,101102.00
2018-07-11T08:23:28.761Z,101100.00
2018-07-11T08:26:50.571Z,101092.00
2018-07-11T08:30:40.781Z,101091.00
2018-07-11T08:34:11.099Z,101094.00
2018-07-11T08:39:43.388Z,101088.00
2018-07-11T08:43:11.483Z,101102.00
2018-07-11T08:46:38.134Z,101094.00
2018-07-11T08:52:09.705Z,101092.00
2018-07-11T08:56:04.051Z,101096.00
2018-07-11T09:01:31.597Z,101093.00
2018-07-11T09:05:33.619Z,101091.00
2018-07-11T09:09:50.347Z,101097.00
2018-07-11T09:15:21.718Z,101099.00
2018-07-11T09:18:58.727Z,101088.00
2018-07-11T09:22:20.148Z,101080.00
2018-07-11T09:25:30.851Z,101079.00
2018-07-11T09:28:41.709Z,101072.00
2018-07-11T09:31:52.346Z,101070.00
2018-07-11T09:35:03.469Z,101069.00
2018-07-11T09:38:13.776Z,101061.00
2018-07-11T09:41:24.583Z,101051.00
2018-07-11T09:44:35.552Z,101046.00
2018-07-11T09:47:46.240Z,101046.00
2018-07-11T09:50:56.940Z,101042.00
2018-07-11T09:54:07.771Z,101038.00
2018-07-11T09:57:18.626Z,101033.00
2018-07-11T10:00:35.080Z,101031.00
2018-07-11T10:03:45.603Z,101025.00
2018-07-11T10:06:56.533Z,101028.00
2018-07-11T10:10:11.273Z,101029.00
2018-07-11T10:13:22.272Z,101022.00
2018-07-11T10:16:33.341Z,101025.00
2018-07-11T10:19:44.327Z,101022.00
2018-07-11T10:22:55.091Z,101013.00
2018-07-11T10:26:05.712Z,101017.00
2018-07-11T10:29:16.175Z,101010.00
2018-07-11T10:32:28.319Z,100999.00
2018-07-11T10:35:38.959Z,101004.00
2018-07-11T10:38:49.582Z,100999.00
2018-07-11T10:42:00.131Z,100999.00
2018-07-11T10:45:10.593Z,100994.00
2018-07-11T10:48:21.057Z,100991.00
2018-07-11T10:51:31.708Z,100988.00
2018-07-11T10:54:42.544Z,100984.00
2018-07-11T10:57:53.294Z,100985.00
2018-07-11T11:01:05.695Z,100982.00
2018-07-11T11:04:19.517Z,100986.00
2018-07-11T11:07:31.053Z,100989.00
2018-07-11T11:10:41.655Z,101003.00
2018-07-11T11:13:52.551Z,101014.00
2018-07-11T11:17:03.445Z,101004.00
2018-07-11T11:20:14.129Z,100999.00
2018-07-11T11:23:24.797Z,101008.00
2018-07-11T11:26:35.696Z,101011.00
2018-07-11T11:29:46.749Z,101019.00
2018-07-11T11:32:57.532Z,101013.00
2018-07-11T11:36:08.232Z,101004.00
2018-07-11T11:39:18.880Z,101004.00
2018-07-11T11:42:30.441Z,101006.00
2018-07-11T11:45:40.416Z,101001.00
2018-07-11T11:48:50.716Z,101002.00
2018-07-11T11:52:01.216Z,101009.00
2018-07-11T11:55:12.041Z,101001.00
2018-07-11T11:58:22.528Z,101000.00
2018-07-11T12:01:34.494Z,100997.00
2018-07-11T12:04:44.971Z,101002.00
2018-07-11T12:07:55.441Z,101003.00
2018-07-11T12:11:05.897Z,101002.00
2018-07-11T12:14:17.513Z,101000.00
2018-07-11T12:17:28.123Z,101002.00
2018-07-11T12:20:38.864Z,100996.00
2018-07-11T12:23:49.852Z,100993.00
2018-07-11T12:27:00.415Z,100985.00
2018-07-11T12:30:11.288Z,100983.00
2018-07-11T12:33:22.168Z,100978.00
2018-07-11T12:36:33.351Z,100976.00
2018-07-11T12:39:44.187Z,100976.00
2018-07-11T12:42:54.763Z,100977.00
2018-07-11T12:46:05.267Z,100982.00
2018-07-11T12:49:15.938Z,100983.00
2018-07-11T12:52:26.544Z,100985.00
2018-07-11T12:55:39.368Z,100988.00
2018-07-11T12:58:50.234Z,100985.00
2018-07-11T13:02:01.525Z,100983.00
2018-07-11T13:05:12.361Z,100979.00
2018-07-11T13:08:23.088Z,100986.00
2018-07-11T13:11:33.891Z,100974.00
2018-07-11T13:14:44.644Z,100977.00
2018-07-11T13:17:55.683Z,100983.00
2018-07-11T13:21:06.529Z,100981.00
2018-07-11T13:24:17.060Z,100984.00
2018-07-11T13:27:27.605Z,100983.00
2018-07-11T13:30:38.263Z,100984.00
2018-07-11T13:33:48.692Z,100982.00
2018-07-11T13:36:59.485Z,100978.00
2018-07-11T13:40:10.375Z,100980.00
2018-07-11T13:43:21.282Z,100977.00
2018-07-11T13:46:32.034Z,100976.00
2018-07-11T13:49:43.404Z,100971.00
2018-07-11T13:52:54.309Z,100965.00
2018-07-11T13:56:05.052Z,100961.00
2018-07-11T13:59:16.752Z,100959.00
2018-07-11T14:02:27.481Z,100962.00
2018-07-11T14:05:38.361Z,100962.00
2018-07-11T14:08:49.253Z,100958.00
2018-07-11T14:11:59.720Z,100960.00
2018-07-11T14:15:10.363Z,100956.00
2018-07-11T14:18:21.236Z,100934.00
2018-07-11T14:21:31.649Z,100921.00
2018-07-11T14:24:42.676Z,100914.00
2018-07-11T14:27:53.616Z,100919.00
2018-07-11T14:31:05.941Z,100918.00
2018-07-11T14:34:16.833Z,100924.00
2018-07-11T14:37:27.510Z,100922.00
2018-07-11T14:40:38.152Z,100927.00
2018-07-11T14:43:48.690Z,100929.00
2018-07-11T14:47:04.000Z,100932.00
2018-07-11T14:50:14.641Z,100924.00
2018-07-11T14:53:25.247Z,100922.00
2018-07-11T14:56:37.231Z,100923.00
2018-07-11T14:59:48.799Z,100928.00
2018-07-11T15:02:59.175Z,100931.00
2018-07-11T15:06:10.140Z,100928.00
2018-07-11T15:09:21.308Z,100917.00
2018-07-11T15:12:31.948Z,100927.00
2018-07-11T15:15:42.652Z,100935.00
2018-07-11T15:18:53.608Z,100936.00
2018-07-11T15:22:04.033Z,100945.00
2018-07-11T15:25:14.872Z,100942.00
2018-07-11T15:28:25.752Z,100936.00
2018-07-11T15:31:40.805Z,100943.00
2018-07-11T15:34:51.481Z,100925.00
2018-07-11T15:38:02.638Z,100941.00
2018-07-11T15:41:13.419Z,100942.00
2018-07-11T15:44:24.161Z,100944.00
2018-07-11T15:47:36.739Z,100949.00
2018-07-11T15:50:47.583Z,100942.00
2018-07-11T15:53:58.353Z,100950.00
2018-07-11T15:57:09.036Z,100945.00
2018-07-11T16:00:22.481Z,100944.00
2018-07-11T16:03:35.834Z,100952.00
2018-07-11T16:06:46.375Z,100947.00
2018-07-11T16:09:58.591Z,100948.00
2018-07-11T16:13:09.535Z,100949.00
2018-07-11T16:16:21.070Z,100951.00
2018-07-11T16:19:31.496Z,100950.00
2018-07-11T16:22:41.948Z,100950.00
2018-07-11T16:25:53.785Z,100948.00
2018-07-11T16:29:04.716Z,100949.00
2018-07-11T16:32:15.407Z,100959.00
2018-07-11T16:35:26.322Z,100966.00
2018-07-11T16:38:37.115Z,100964.00
2018-07-11T16:41:48.400Z,100963.00
2018-07-11T16:44:59.078Z,100967.00
2018-07-11T16:48:10.428Z,100966.00
2018-07-11T16:51:21.238Z,100963.00
2018-07-11T16:54:32.510Z,100967.00
2018-07-11T16:57:52.121Z,100964.00
2018-07-11T17:01:11.540Z,100971.00
2018-07-11T17:04:26.666Z,100973.00
2018-07-11T17:07:51.219Z,100971.00
2018-07-11T17:11:16.238Z,100968.00
2018-07-11T17:14:29.412Z,100974.00
2018-07-11T17:17:41.394Z,100971.00
2018-07-11T17:20:52.658Z,100977.00
2018-07-11T17:24:08.676Z,100973.00
2018-07-11T17:27:22.813Z,100977.00
2018-07-11T17:30:36.132Z,100980.00
2018-07-11T17:33:47.088Z,100983.00
2018-07-11T17:37:06.265Z,100983.00
2018-07-11T17:40:19.710Z,100982.00
2018-07-11T17:43:37.064Z,100987.00
2018-07-11T17:46:49.597Z,100991.00
2018-07-11T17:50:04.596Z,100992.00
2018-07-11T17:53:22.208Z,100991.00
2018-07-11T17:56:59.214Z,100996.00
2018-07-11T18:00:10.745Z,100991.00
2018-07-11T18:06:07.773Z,100993.00
2018-07-11T18:09:26.133Z,101000.00
2018-07-11T18:12:58.030Z,101003.00
2018-07-11T18:16:47.047Z,101006.00
2018-07-11T18:20:16.099Z,100997.00
2018-07-11T18:23:47.358Z,100995.00
2018-07-11T18:27:18.572Z,100993.00
2018-07-11T18:30:57.512Z,100988.00
2018-07-11T18:34:21.215Z,100989.00
2018-07-11T18:37:48.706Z,100990.00
2018-07-11T18:41:10.829Z,100993.00
2018-07-11T18:44:26.220Z,101003.00
2018-07-11T18:48:50.351Z,101020.00
2018-07-11T18:52:15.370Z,101017.00
2018-07-11T18:56:00.561Z,101018.00
2018-07-11T18:59:27.422Z,101014.00
2018-07-11T19:02:55.296Z,101011.00
2018-07-11T19:08:20.731Z,101013.00
2018-07-11T19:11:53.916Z,101017.00
2018-07-11T19:15:16.771Z,101024.00
2018-07-11T19:18:37.516Z,101022.00
2018-07-11T19:21:56.067Z,101020.00
2018-07-11T19:25:32.327Z,101020.00
2018-07-11T19:30:57.276Z,101021.00
2018-07-11T19:36:23.025Z,101034.00
2018-07-11T19:39:44.244Z,101036.00
2018-07-11T19:45:18.376Z,101040.00
2018-07-11T19:48:43.896Z,101049.00
2018-07-11T19:52:10.145Z,101049.00
2018-07-11T19:56:10.646Z,101048.00
2018-07-11T19:59:21.311Z,101051.00
2018-07-11T20:02:32.321Z,101051.00
2018-07-11T20:05:53.343Z,101058.00
2018-07-11T20:08:55.156Z,101059.00
2018-07-11T20:12:06.789Z,101064.00
2018-07-11T20:15:17.233Z,101061.00
2018-07-11T20:18:28.098Z,101067.00
2018-07-11T20:21:39.036Z,101066.00
2018-07-11T20:24:50.384Z,101068.00
2018-07-11T20:28:01.481Z,101073.00
2018-07-11T20:31:12.539Z,101073.00
2018-07-11T20:34:23.553Z,101073.00
2018-07-11T20:37:34.461Z,101076.00
2018-07-11T20:40:45.446Z,101074.00
2018-07-11T20:43:56.056Z,101075.00
2018-07-11T20:47:06.786Z,101073.00
2018-07-11T20:50:18.388Z,101073.00
2018-07-11T20:53:29.337Z,101072.00
2018-07-11T20:56:40.928Z,101077.00
2018-07-11T21:00:08.633Z,101084.00
2018-07-11T21:05:48.077Z,101081.00
2018-07-11T21:11:22.829Z,101073.00
2018-07-11T21:14:58.697Z,101073.00
2018-07-11T21:19:14.051Z,101080.00
2018-07-11T21:22:24.844Z,101087.00
2018-07-11T21:25:35.388Z,101087.00
2018-07-11T21:28:46.728Z,101088.00
2018-07-11T21:31:58.435Z,101092.00
2018-07-11T21:35:09.348Z,101091.00
2018-07-11T21:38:20.312Z,101095.00
2018-07-11T21:41:31.078Z,101094.00
2018-07-11T21:44:41.864Z,101092.00
2018-07-11T21:47:57.303Z,101096.00
2018-07-11T21:51:08.039Z,101093.00
2018-07-11T21:54:18.564Z,101089.00
2018-07-11T21:57:29.452Z,101087.00
2018-07-11T22:00:41.444Z,101093.00
2018-07-11T22:03:52.352Z,101096.00
2018-07-11T22:07:02.826Z,101096.00
2018-07-11T22:10:14.112Z,101098.00
2018-07-11T22:13:24.973Z,101089.00
2018-07-11T22:16:36.105Z,101086.00
2018-07-11T22:19:45.218Z,101086.00
2018-07-11T22:22:55.015Z,101089.00
2018-07-11T22:26:05.262Z,101089.00
2018-07-11T22:29:14.620Z,101088.00
2018-07-11T22:32:24.113Z,101094.00
2018-07-11T22:35:33.494Z,101091.00
2018-07-11T22:38:43.432Z,101090.00
2018-07-11T22:41:52.610Z,101089.00
2018-07-11T22:45:02.521Z,101093.00
2018-07-11T22:48:11.537Z,101095.00
2018-07-11T22:51:20.706Z,101097.00
2018-07-11T22:54:29.910Z,101095.00
2018-07-11T22:57:39.003Z,101094.00
2018-07-11T23:00:48.025Z,101098.00
2018-07-11T23:03:57.445Z,101094.00
2018-07-11T23:07:06.678Z,101092.00
2018-07-11T23:10:16.928Z,101099.00
2018-07-11T23:13:25.949Z,101091.00
2018-07-11T23:16:35.219Z,101093.00
2018-07-11T23:19:44.055Z,101088.00
2018-07-11T23:22:53.112Z,101091.00
2018-07-11T23:26:02.266Z,101089.00
2018-07-11T23:29:11.649Z,101101.00
2018-07-11T23:32:20.749Z,101102.00
2018-07-11T23:35:30.227Z,101103.00
2018-07-11T23:38:39.784Z,101104.00
2018-07-11T23:41:49.792Z,101096.00
2018-07-11T23:44:59.152Z,101096.00
2018-07-11T23:48:08.197Z,101103.00
2018-07-11T23:51:18.186Z,101103.00
2018-07-11T23:54:27.246Z,101105.00
2018-07-11T23:57:36.172Z,101107.00
